Bookmark and Share
Track history (hours):
 

Oceanographic research ship Ten'yo (Japan)

Detailed information on ship capabilities available from University of Delaware's Ocean Information Center.

Last reported at 2014-Apr-16 14:33 UTC. Time now 2014-Apr-23 19:11 UTC.
Position N 35°53' E 141°01'.

Length 56 m; draft 3.6 m.

Type: Other ship. MMSI: 431100350.

NotesDate/timePositionNaut miles runAvg speedWind from/ knotsBaromVisibWave heightAir tempDewpointWater temp
2014-Apr-16 14:33N 35°53' E 141°01'1510.9
2014-Apr-16 13:12N 35°39' E 140°56'2112.8
2014-Apr-16 11:33N 35°22' E 140°41'3012.4
2014-Apr-16 09:06N 35°01' E 140°13'24 9.2
2014-Apr-16 06:28N 34°57' E 139°44'9 9.8
2014-Apr-16 05:33N 35°06' E 139°45'1010.4
2014-Apr-16 04:33N 35°16' E 139°46'9 8.8
2014-Apr-16 03:34N 35°25' E 139°44'10 9.8
2014-Apr-16 02:33N 35°33' E 139°51'6 5.3
2014-Apr-16 01:24N 35°38' E 139°47'0 0.0
2014-Apr-16 00:33N 35°38' E 139°47'  
2014-Apr-08 06:10N 35°38' E 139°47'1 1.9
2014-Apr-08 05:33N 35°37' E 139°46'6 5.8
2014-Apr-08 04:33N 35°35' E 139°53'0 0.3
2014-Apr-08 03:31N 35°35' E 139°53'0 0.0
2014-Apr-08 02:31N 35°35' E 139°53'0 0.0
2014-Apr-08 01:28N 35°35' E 139°53'0 0.0
2014-Apr-08 00:25N 35°35' E 139°53'0 0.0
2014-Apr-07 23:31N 35°35' E 139°53'0 0.0
2014-Apr-07 22:31N 35°35' E 139°53'0 0.0
2014-Apr-07 21:25N 35°35' E 139°53'0 0.0
2014-Apr-07 20:31N 35°35' E 139°53'0 0.0
2014-Apr-07 19:28N 35°35' E 139°53'0 0.0
2014-Apr-07 17:19N 35°35' E 139°53'0 0.0
2014-Apr-07 16:25N 35°35' E 139°53'0 0.0
2014-Apr-07 15:31N 35°35' E 139°53'0 0.0
2014-Apr-07 14:33N 35°35' E 139°53'0 0.0
2014-Apr-07 13:33N 35°35' E 139°53'0 0.0
2014-Apr-07 12:33N 35°35' E 139°53'0 0.0
2014-Apr-07 11:33N 35°35' E 139°53'0 0.0
2014-Apr-07 10:33N 35°35' E 139°53'0 0.0
2014-Apr-07 09:33N 35°35' E 139°53'0 0.0
2014-Apr-07 08:33N 35°35' E 139°53'0 0.0
2014-Apr-07 07:33N 35°35' E 139°53'0 0.0
2014-Apr-07 06:33N 35°35' E 139°53'0 0.0
2014-Apr-07 05:33N 35°35' E 139°53'4 4.0
2014-Apr-07 04:33N 35°35' E 139°48'3 3.1
2014-Apr-07 03:33N 35°38' E 139°47'0 0.0
2014-Apr-07 02:30N 35°38' E 139°47'0 0.0
2014-Apr-07 01:33N 35°38' E 139°47'0 0.0
2014-Apr-07 00:33N 35°38' E 139°47'  

Dump ship's entire track history

sailing weather and tide predictions

Ten'yo — JBBC — position and weather